Time;durP1;ratioP1;P1;durP2;ratioP2;P2;SDS_P1;SDS_P2;PMS_P1;PMS_P2;Temp;Humidity;BMP_temperature;BMP_pressure;BME280_temperature;BME280_humidity;BME280_pressure;Samples;Min_cycle;Max_cycle;Signal;HPM_P1;HPM_P2
2024/03/04 00:01:18;;;;;;;35.60;20.70;;;;;;;;;;107015;1256;61407;-83
2024/03/04 00:03:47;;;;;;;39.20;20.90;;;;;;;;;;107106;1252;61292;-82
2024/03/04 00:06:14;;;;;;;37.30;20.00;;;;;;;;;;107110;1253;61250;-82
2024/03/04 00:08:41;;;;;;;35.60;19.80;;;;;;;;;;107099;1253;61247;-83
2024/03/04 00:11:07;;;;;;;38.00;21.80;;;;;;;;;;107078;1253;61257;-82
2024/03/04 00:13:35;;;;;;;39.30;20.10;;;;;;;;;;107072;1253;62278;-83
2024/03/04 00:16:05;;;;;;;34.30;17.70;;;;;;;;;;107057;1254;61072;-82
2024/03/04 00:18:31;;;;;;;41.00;21.20;;;;;;;;;;107063;1254;61389;-81
2024/03/04 00:21:00;;;;;;;38.30;22.50;;;;;;;;;;107087;1254;61224;-82
2024/03/04 00:23:28;;;;;;;41.70;22.90;;;;;;;;;;106982;1256;62296;-83
2024/03/04 00:25:54;;;;;;;38.50;21.60;;;;;;;;;;107070;1252;62286;-81
2024/03/04 00:28:21;;;;;;;43.30;21.60;;;;;;;;;;107011;1256;61349;-82
2024/03/04 00:30:47;;;;;;;44.30;24.20;;;;;;;;;;106999;1253;61243;-82
2024/03/04 00:33:14;;;;;;;42.80;23.10;;;;;;;;;;107007;1253;59241;-82
2024/03/04 00:35:41;;;;;;;36.30;21.00;;;;;;;;;;107058;1254;61030;-83
2024/03/04 00:38:07;;;;;;;44.50;22.10;;;;;;;;;;106799;1254;61259;-82
2024/03/04 00:40:34;;;;;;;40.20;21.30;;;;;;;;;;107030;1256;61279;-83
2024/03/04 00:43:00;;;;;;;44.00;23.20;;;;;;;;;;107081;1256;61262;-83
2024/03/04 00:45:26;;;;;;;41.20;21.40;;;;;;;;;;107092;1253;59257;-83
2024/03/04 00:47:53;;;;;;;35.90;21.00;;;;;;;;;;106996;1253;61280;-82
2024/03/04 00:50:19;;;;;;;38.10;21.40;;;;;;;;;;107017;1253;61208;-82
2024/03/04 00:52:46;;;;;;;35.00;19.30;;;;;;;;;;107100;1256;61413;-83
2024/03/04 00:55:12;;;;;;;38.40;21.90;;;;;;;;;;107088;1253;61319;-83
2024/03/04 00:57:38;;;;;;;37.90;20.70;;;;;;;;;;106967;1253;61078;-83
2024/03/04 01:00:08;;;;;;;37.90;22.20;;;;;;;;;;107121;1256;61342;-82
2024/03/04 01:02:34;;;;;;;40.70;21.00;;;;;;;;;;107214;1257;61152;-83
2024/03/04 01:05:02;;;;;;;36.60;19.60;;;;;;;;;;107127;1256;61212;-82
2024/03/04 01:07:29;;;;;;;40.10;19.30;;;;;;;;;;107059;1258;62365;-82
2024/03/04 01:09:56;;;;;;;37.00;18.50;;;;;;;;;;107184;1254;61144;-82
2024/03/04 01:12:23;;;;;;;30.00;17.90;;;;;;;;;;107122;1254;61940;-81
2024/03/04 01:14:49;;;;;;;30.90;18.90;;;;;;;;;;107066;1256;61141;-81
2024/03/04 01:17:16;;;;;;;32.50;18.50;;;;;;;;;;106959;1256;61144;-81
2024/03/04 01:19:46;;;;;;;35.60;17.30;;;;;;;;;;108061;1253;61254;-81
2024/03/04 01:22:18;;;;;;;33.00;18.00;;;;;;;;;;107062;1257;62594;-82
2024/03/04 01:24:45;;;;;;;28.90;16.60;;;;;;;;;;107157;1254;62035;-81
2024/03/04 01:27:11;;;;;;;31.20;17.50;;;;;;;;;;107003;1253;61158;-83
2024/03/04 01:29:38;;;;;;;33.00;18.60;;;;;;;;;;109438;1256;59686;-81
2024/03/04 01:32:05;;;;;;;35.20;17.80;;;;;;;;;;109520;1253;59005;-83
2024/03/04 01:34:31;;;;;;;30.70;18.60;;;;;;;;;;109472;1253;58828;-82
2024/03/04 01:36:58;;;;;;;27.70;15.60;;;;;;;;;;109509;1253;59194;-83
2024/03/04 01:39:24;;;;;;;33.40;16.80;;;;;;;;;;109533;1253;58854;-81
2024/03/04 01:41:50;;;;;;;29.60;17.80;;;;;;;;;;109504;1252;58939;-82
2024/03/04 01:44:17;;;;;;;35.80;18.80;;;;;;;;;;109188;1254;58895;-83
2024/03/04 01:46:44;;;;;;;35.70;16.80;;;;;;;;;;107065;1253;61199;-82
2024/03/04 01:49:10;;;;;;;28.80;15.30;;;;;;;;;;107009;1256;61343;-83
2024/03/04 01:51:37;;;;;;;34.90;19.00;;;;;;;;;;107033;1256;61250;-83
2024/03/04 01:54:03;;;;;;;33.40;16.10;;;;;;;;;;107030;1253;60655;-83
2024/03/04 01:56:30;;;;;;;32.90;17.70;;;;;;;;;;106930;1256;61140;-81
2024/03/04 01:58:56;;;;;;;31.20;16.60;;;;;;;;;;106974;1254;61096;-81
2024/03/04 02:01:25;;;;;;;31.80;20.10;;;;;;;;;;106907;1253;61107;-83
2024/03/04 02:03:53;;;;;;;29.90;17.50;;;;;;;;;;107017;1257;59472;-83
2024/03/04 02:06:20;;;;;;;34.80;20.20;;;;;;;;;;106976;1253;61264;-83
2024/03/04 02:08:47;;;;;;;30.30;17.40;;;;;;;;;;106979;1253;61423;-82
2024/03/04 02:11:13;;;;;;;34.50;17.80;;;;;;;;;;106961;1259;61151;-81
2024/03/04 02:13:40;;;;;;;33.50;17.80;;;;;;;;;;106958;1253;61256;-83
2024/03/04 02:16:06;;;;;;;28.70;17.50;;;;;;;;;;107043;1258;61369;-81
2024/03/04 02:18:34;;;;;;;30.80;16.90;;;;;;;;;;107233;1255;61256;-82
2024/03/04 02:21:00;;;;;;;28.90;16.20;;;;;;;;;;106953;1259;59501;-81
2024/03/04 02:23:27;;;;;;;39.40;19.90;;;;;;;;;;106843;1254;61219;-84
2024/03/04 02:25:54;;;;;;;45.40;22.00;;;;;;;;;;107082;1256;61239;-83
2024/03/04 02:28:22;;;;;;;68.30;30.20;;;;;;;;;;107061;1254;61216;-84
2024/03/04 02:30:49;;;;;;;140.90;57.50;;;;;;;;;;106988;1255;61353;-83
2024/03/04 02:33:17;;;;;;;92.20;42.60;;;;;;;;;;107010;1258;61458;-84
2024/03/04 02:35:44;;;;;;;59.10;29.90;;;;;;;;;;107263;1253;61902;-84
2024/03/04 02:38:10;;;;;;;33.60;19.60;;;;;;;;;;107079;1256;61947;-83
2024/03/04 02:40:37;;;;;;;31.10;17.00;;;;;;;;;;107152;1254;61147;-83
2024/03/04 02:43:03;;;;;;;36.50;20.00;;;;;;;;;;107122;1256;59478;-82
2024/03/04 02:45:30;;;;;;;49.10;27.40;;;;;;;;;;107125;1256;61334;-83
2024/03/04 02:47:56;;;;;;;58.60;30.50;;;;;;;;;;107117;1251;63236;-81
2024/03/04 02:50:23;;;;;;;70.10;39.50;;;;;;;;;;107120;1252;61276;-83
2024/03/04 02:52:49;;;;;;;63.20;34.80;;;;;;;;;;107082;1254;61217;-83
2024/03/04 02:55:15;;;;;;;50.10;27.10;;;;;;;;;;107047;1257;61298;-82
2024/03/04 02:57:42;;;;;;;53.30;26.40;;;;;;;;;;107032;1256;61307;-81
2024/03/04 03:00:10;;;;;;;51.50;28.20;;;;;;;;;;107036;1257;61269;-81
2024/03/04 03:02:36;;;;;;;57.10;27.40;;;;;;;;;;107014;1254;62339;-82
2024/03/04 03:05:03;;;;;;;48.60;25.20;;;;;;;;;;107045;1252;62264;-82
2024/03/04 03:07:29;;;;;;;26.50;16.30;;;;;;;;;;106936;1257;62307;-84
2024/03/04 03:09:55;;;;;;;25.20;17.00;;;;;;;;;;106882;1259;61664;-83
2024/03/04 03:12:22;;;;;;;29.20;15.50;;;;;;;;;;107021;1254;59933;-83
2024/03/04 03:14:49;;;;;;;28.00;15.30;;;;;;;;;;107044;1254;61150;-85
2024/03/04 03:17:15;;;;;;;35.30;17.30;;;;;;;;;;107016;1260;61148;-84
2024/03/04 03:19:42;;;;;;;28.90;17.50;;;;;;;;;;107057;1255;61254;-84
2024/03/04 03:22:09;;;;;;;27.50;16.20;;;;;;;;;;106978;1254;61212;-83
2024/03/04 03:24:35;;;;;;;29.40;17.00;;;;;;;;;;107055;1257;61340;-83
2024/03/04 03:27:01;;;;;;;30.10;18.40;;;;;;;;;;107046;1256;59449;-84
2024/03/04 03:29:28;;;;;;;28.70;17.80;;;;;;;;;;107038;1256;61285;-84
2024/03/04 03:31:54;;;;;;;34.40;19.00;;;;;;;;;;107034;1252;61442;-84
2024/03/04 03:34:21;;;;;;;43.50;22.60;;;;;;;;;;107020;1256;61342;-84
2024/03/04 03:36:47;;;;;;;55.80;28.00;;;;;;;;;;106784;1260;61408;-83
2024/03/04 03:39:14;;;;;;;54.60;29.30;;;;;;;;;;107023;1254;61707;-84
2024/03/04 03:41:41;;;;;;;61.30;29.20;;;;;;;;;;107003;1255;62089;-84
2024/03/04 03:44:07;;;;;;;61.20;30.40;;;;;;;;;;106963;1254;61339;-84
2024/03/04 03:46:34;;;;;;;50.70;24.60;;;;;;;;;;107032;1257;61226;-84
2024/03/04 03:49:00;;;;;;;42.20;21.90;;;;;;;;;;107809;1254;61237;-83
2024/03/04 03:51:27;;;;;;;27.80;17.10;;;;;;;;;;109495;1252;59125;-83
2024/03/04 03:53:53;;;;;;;33.30;19.00;;;;;;;;;;109466;1254;59150;-83
2024/03/04 03:56:20;;;;;;;33.80;18.30;;;;;;;;;;107188;1255;61244;-83
2024/03/04 03:58:50;;;;;;;30.20;17.70;;;;;;;;;;106970;1255;61276;-82
2024/03/04 04:01:16;;;;;;;30.10;17.00;;;;;;;;;;106995;1254;61250;-81
2024/03/04 04:03:43;;;;;;;26.40;17.10;;;;;;;;;;107651;1253;61997;-82
2024/03/04 04:06:09;;;;;;;31.40;16.50;;;;;;;;;;108043;1254;61250;-83
2024/03/04 04:08:36;;;;;;;31.00;16.20;;;;;;;;;;107255;1259;61090;-81
2024/03/04 04:11:03;;;;;;;36.70;18.40;;;;;;;;;;107064;1256;61263;-82
2024/03/04 04:13:30;;;;;;;40.10;20.10;;;;;;;;;;107599;1253;61103;-84
2024/03/04 04:15:56;;;;;;;36.10;20.50;;;;;;;;;;109473;1254;62801;-83
2024/03/04 04:18:23;;;;;;;30.00;16.40;;;;;;;;;;108334;1254;60464;-83
2024/03/04 04:20:49;;;;;;;27.80;15.00;;;;;;;;;;107031;1256;61217;-81
2024/03/04 04:23:17;;;;;;;26.60;15.50;;;;;;;;;;106884;1255;61326;-81
2024/03/04 04:25:43;;;;;;;23.10;13.70;;;;;;;;;;107029;1254;61161;-82
2024/03/04 04:28:10;;;;;;;24.30;15.00;;;;;;;;;;107051;1256;61243;-82
2024/03/04 04:30:38;;;;;;;34.20;17.90;;;;;;;;;;107054;1254;61148;-80
2024/03/04 04:33:05;;;;;;;33.90;19.10;;;;;;;;;;106903;1254;61330;-81
2024/03/04 04:35:31;;;;;;;37.60;18.60;;;;;;;;;;107081;1254;61330;-82
2024/03/04 04:37:58;;;;;;;32.30;18.10;;;;;;;;;;107046;1254;62383;-82
2024/03/04 04:40:24;;;;;;;51.10;20.30;;;;;;;;;;106911;1259;61204;-84
2024/03/04 04:42:51;;;;;;;34.60;19.80;;;;;;;;;;106845;1252;61299;-84
2024/03/04 04:45:24;;;;;;;32.70;19.60;;;;;;;;;;106931;1258;61230;-84
2024/03/04 04:47:51;;;;;;;36.20;19.70;;;;;;;;;;107066;1255;61302;-84
2024/03/04 04:50:17;;;;;;;33.60;19.40;;;;;;;;;;107033;1254;61244;-83
2024/03/04 04:52:44;;;;;;;47.60;23.10;;;;;;;;;;106841;1259;61942;-83
2024/03/04 04:55:10;;;;;;;43.50;24.50;;;;;;;;;;106890;1255;61298;-84
2024/03/04 04:57:37;;;;;;;53.90;29.40;;;;;;;;;;106956;1253;61315;-85
2024/03/04 05:00:04;;;;;;;53.00;30.10;;;;;;;;;;107009;1254;61334;-85
2024/03/04 05:02:30;;;;;;;60.10;33.90;;;;;;;;;;106944;1254;61209;-85
2024/03/04 05:04:57;;;;;;;53.30;28.90;;;;;;;;;;107018;1253;61337;-85
2024/03/04 05:07:25;;;;;;;50.70;28.00;;;;;;;;;;106991;1254;61336;-83
2024/03/04 05:09:51;;;;;;;47.70;27.60;;;;;;;;;;109480;1253;59699;-81
2024/03/04 05:12:18;;;;;;;48.00;28.60;;;;;;;;;;109449;1253;58979;-82
2024/03/04 05:14:47;;;;;;;53.60;30.60;;;;;;;;;;109478;1253;58950;-82
2024/03/04 05:17:14;;;;;;;46.90;28.90;;;;;;;;;;109249;1253;60846;-83
2024/03/04 05:19:40;;;;;;;45.10;26.90;;;;;;;;;;107121;1254;61248;-82
2024/03/04 05:22:09;;;;;;;49.40;27.20;;;;;;;;;;107007;1253;61390;-80
2024/03/04 05:24:36;;;;;;;;;;;;;;;;;;108622;1253;59235;-82
2024/03/04 05:27:02;;;;;;;70.20;39.30;;;;;;;;;;109489;1254;58974;-82
2024/03/04 05:29:29;;;;;;;53.00;32.20;;;;;;;;;;109518;1253;59009;-82
2024/03/04 05:31:58;;;;;;;51.60;30.10;;;;;;;;;;107955;1254;61247;-81
2024/03/04 05:34:25;;;;;;;51.20;29.60;;;;;;;;;;108375;1253;60251;-82
2024/03/04 05:36:51;;;;;;;60.40;31.40;;;;;;;;;;109353;1254;58892;-83
2024/03/04 05:39:21;;;;;;;51.80;29.10;;;;;;;;;;109491;1256;59161;-82
2024/03/04 05:41:48;;;;;;;67.30;39.60;;;;;;;;;;107473;1254;62108;-82
2024/03/04 05:44:15;;;;;;;55.90;30.80;;;;;;;;;;106935;1254;62013;-82
2024/03/04 05:46:45;;;;;;;45.80;27.20;;;;;;;;;;106708;1255;254679;-81
2024/03/04 05:49:12;;;;;;;61.10;34.40;;;;;;;;;;106960;1254;61528;-82
2024/03/04 05:51:41;;;;;;;55.20;30.30;;;;;;;;;;106990;1254;61294;-82
2024/03/04 05:54:08;;;;;;;55.60;28.90;;;;;;;;;;106928;1254;62486;-83
2024/03/04 05:56:39;;;;;;;49.50;26.30;;;;;;;;;;107124;1257;61075;-82
2024/03/04 05:59:06;;;;;;;70.50;32.10;;;;;;;;;;107262;1253;61156;-82
2024/03/04 06:01:32;;;;;;;51.90;25.00;;;;;;;;;;107073;1251;59859;-84
2024/03/04 06:03:59;;;;;;;37.10;22.40;;;;;;;;;;107094;1251;61201;-83
2024/03/04 06:06:25;;;;;;;38.10;21.20;;;;;;;;;;107108;1253;61911;-83
2024/03/04 06:08:52;;;;;;;37.00;22.50;;;;;;;;;;107062;1254;61155;-84
2024/03/04 06:11:18;;;;;;;38.30;24.00;;;;;;;;;;106879;1257;61286;-82
2024/03/04 06:13:45;;;;;;;40.00;23.50;;;;;;;;;;107035;1251;61373;-83
2024/03/04 06:16:11;;;;;;;36.40;23.20;;;;;;;;;;107156;1251;61365;-84
2024/03/04 06:18:38;;;;;;;43.80;27.40;;;;;;;;;;107132;1251;62721;-84
2024/03/04 06:21:06;;;;;;;36.20;23.10;;;;;;;;;;106890;1261;61071;-82
2024/03/04 06:23:32;;;;;;;41.20;22.20;;;;;;;;;;107083;1251;61282;-83
2024/03/04 06:25:59;;;;;;;41.30;21.10;;;;;;;;;;107151;1253;61336;-82
2024/03/04 06:28:26;;;;;;;44.90;24.80;;;;;;;;;;106910;1251;61125;-83
2024/03/04 06:30:52;;;;;;;60.70;30.50;;;;;;;;;;107123;1256;61116;-82
2024/03/04 06:33:19;;;;;;;59.70;34.80;;;;;;;;;;107120;1256;60769;-83
2024/03/04 06:35:45;;;;;;;61.70;33.10;;;;;;;;;;107133;1251;61331;-83
2024/03/04 06:38:12;;;;;;;71.70;40.50;;;;;;;;;;107049;1257;61340;-82
2024/03/04 06:40:38;;;;;;;70.60;45.00;;;;;;;;;;107299;1251;61224;-82
2024/03/04 06:43:05;;;;;;;86.40;48.00;;;;;;;;;;107048;1257;61340;-84
2024/03/04 06:45:31;;;;;;;85.60;48.00;;;;;;;;;;107123;1251;61167;-83
2024/03/04 06:48:01;;;;;;;85.10;47.00;;;;;;;;;;107089;1251;61311;-83
2024/03/04 06:50:28;;;;;;;82.70;46.70;;;;;;;;;;107084;1254;61359;-84
2024/03/04 06:52:56;;;;;;;85.00;48.70;;;;;;;;;;107000;1253;61198;-82
2024/03/04 06:55:23;;;;;;;84.30;48.20;;;;;;;;;;107169;1257;61918;-83
2024/03/04 06:57:49;;;;;;;86.80;49.00;;;;;;;;;;107130;1256;61000;-83
2024/03/04 07:00:16;;;;;;;64.30;38.70;;;;;;;;;;107007;1254;61225;-84
2024/03/04 07:02:42;;;;;;;53.40;30.80;;;;;;;;;;107010;1254;61218;-84
2024/03/04 07:05:09;;;;;;;56.90;32.20;;;;;;;;;;107070;1255;59994;-84
2024/03/04 07:07:35;;;;;;;61.50;33.70;;;;;;;;;;107456;1256;61148;-83
2024/03/04 07:10:02;;;;;;;57.80;30.40;;;;;;;;;;107242;1254;61156;-84
2024/03/04 07:12:28;;;;;;;59.60;32.30;;;;;;;;;;108324;1253;61103;-83
2024/03/04 07:14:55;;;;;;;52.50;28.40;;;;;;;;;;107442;1254;61418;-83
2024/03/04 07:17:21;;;;;;;51.40;31.10;;;;;;;;;;107152;1254;61240;-83
2024/03/04 07:19:48;;;;;;;64.50;36.50;;;;;;;;;;107016;1252;61212;-82
2024/03/04 07:22:14;;;;;;;60.40;32.90;;;;;;;;;;107233;1252;61752;-84
2024/03/04 07:24:41;;;;;;;62.80;32.50;;;;;;;;;;107242;1254;60883;-83
2024/03/04 07:27:08;;;;;;;74.10;37.30;;;;;;;;;;108394;1254;61844;-83
2024/03/04 07:29:34;;;;;;;76.60;42.40;;;;;;;;;;107190;1253;61317;-83
2024/03/04 07:32:01;;;;;;;79.70;43.00;;;;;;;;;;107527;1254;63093;-83
2024/03/04 07:34:27;;;;;;;81.00;45.50;;;;;;;;;;107233;1253;61483;-83
2024/03/04 07:36:54;;;;;;;69.00;46.10;;;;;;;;;;107375;1253;61125;-82
2024/03/04 07:39:22;;;;;;;51.80;37.80;;;;;;;;;;107423;1256;61161;-82
2024/03/04 07:41:49;;;;;;;47.00;32.30;;;;;;;;;;109419;1253;59004;-83
2024/03/04 07:44:19;;;;;;;50.60;29.00;;;;;;;;;;109459;1251;62033;-82
2024/03/04 07:46:47;;;;;;;38.70;27.30;;;;;;;;;;109332;1253;59975;-83
2024/03/04 07:49:14;;;;;;;40.00;24.40;;;;;;;;;;109461;1253;60083;-83
2024/03/04 07:51:40;;;;;;;36.90;23.90;;;;;;;;;;109431;1251;58883;-83
2024/03/04 07:54:06;;;;;;;33.90;22.30;;;;;;;;;;109442;1251;59175;-83
2024/03/04 07:56:33;;;;;;;36.00;24.30;;;;;;;;;;109378;1253;59074;-82
2024/03/04 07:59:00;;;;;;;50.50;32.10;;;;;;;;;;109435;1251;58955;-83
2024/03/04 08:01:26;;;;;;;114.20;58.50;;;;;;;;;;109399;1253;61279;-83
2024/03/04 08:03:53;;;;;;;103.80;57.90;;;;;;;;;;109383;1253;59137;-83
2024/03/04 08:06:20;;;;;;;84.20;46.10;;;;;;;;;;109335;1254;58943;-82
2024/03/04 08:08:48;;;;;;;56.90;38.60;;;;;;;;;;109290;1252;62829;-84
2024/03/04 08:11:15;;;;;;;69.50;45.40;;;;;;;;;;109432;1251;59037;-83
2024/03/04 08:13:41;;;;;;;66.30;44.50;;;;;;;;;;109398;1251;60914;-83
2024/03/04 08:16:08;;;;;;;45.40;32.00;;;;;;;;;;108837;1253;59271;-84
2024/03/04 08:18:35;;;;;;;36.30;24.60;;;;;;;;;;107334;1251;61048;-84
2024/03/04 08:21:02;;;;;;;44.80;27.30;;;;;;;;;;107758;1251;61919;-84
2024/03/04 08:23:28;;;;;;;30.60;21.80;;;;;;;;;;107631;1253;61003;-84
2024/03/04 08:25:54;;;;;;;23.70;17.70;;;;;;;;;;107550;1253;61142;-85
2024/03/04 08:28:22;;;;;;;27.50;17.30;;;;;;;;;;107333;1254;61250;-84
2024/03/04 08:30:49;;;;;;;26.50;14.20;;;;;;;;;;107484;1253;62236;-83
2024/03/04 08:33:16;;;;;;;25.00;14.10;;;;;;;;;;107596;1251;59177;-84
2024/03/04 08:35:43;;;;;;;18.30;12.20;;;;;;;;;;107441;1255;61087;-85
2024/03/04 08:38:10;;;;;;;25.40;12.20;;;;;;;;;;107472;1254;61210;-84
2024/03/04 08:40:36;;;;;;;16.10;9.50;;;;;;;;;;107184;1253;61228;-84
2024/03/04 08:43:03;;;;;;;14.00;9.00;;;;;;;;;;107495;1255;61395;-83
2024/03/04 08:45:30;;;;;;;12.90;8.40;;;;;;;;;;107391;1253;62905;-84
2024/03/04 08:47:57;;;;;;;16.80;8.70;;;;;;;;;;107477;1256;59500;-84
2024/03/04 08:50:23;;;;;;;15.50;8.60;;;;;;;;;;107482;1251;61253;-84
2024/03/04 08:52:50;;;;;;;9.30;6.10;;;;;;;;;;107541;1256;61243;-83
2024/03/04 08:55:17;;;;;;;7.20;5.40;;;;;;;;;;107349;1256;59403;-84
2024/03/04 08:57:43;;;;;;;10.00;7.10;;;;;;;;;;107448;1256;61881;-84
2024/03/04 09:00:10;;;;;;;7.10;5.10;;;;;;;;;;107325;1253;61268;-84
2024/03/04 09:02:36;;;;;;;11.60;5.80;;;;;;;;;;107535;1256;59380;-85
2024/03/04 09:05:04;;;;;;;6.90;5.30;;;;;;;;;;107302;1253;61284;-84
2024/03/04 09:07:30;;;;;;;9.30;5.30;;;;;;;;;;107378;1256;59211;-84
2024/03/04 09:09:59;;;;;;;21.00;7.20;;;;;;;;;;107378;1256;61212;-84
2024/03/04 09:12:27;;;;;;;10.70;7.80;;;;;;;;;;107394;1253;59482;-83
2024/03/04 09:14:53;;;;;;;11.70;7.70;;;;;;;;;;107306;1256;61227;-83
2024/03/04 09:17:21;;;;;;;12.20;7.60;;;;;;;;;;107238;1254;61153;-84
2024/03/04 09:19:47;;;;;;;11.90;6.20;;;;;;;;;;107378;1253;61209;-83
2024/03/04 09:22:13;;;;;;;11.80;6.10;;;;;;;;;;107420;1251;59774;-84
2024/03/04 09:24:40;;;;;;;11.60;6.90;;;;;;;;;;107352;1251;61256;-83
2024/03/04 09:27:07;;;;;;;9.70;5.10;;;;;;;;;;107379;1253;61157;-82
2024/03/04 09:29:34;;;;;;;9.50;4.20;;;;;;;;;;107466;1253;61373;-83
2024/03/04 09:32:00;;;;;;;9.90;4.60;;;;;;;;;;107574;1253;61262;-82
2024/03/04 09:34:27;;;;;;;13.70;4.10;;;;;;;;;;107435;1251;59466;-82
2024/03/04 09:36:53;;;;;;;6.80;4.80;;;;;;;;;;107403;1256;61253;-82
2024/03/04 09:39:19;;;;;;;9.40;4.60;;;;;;;;;;107427;1253;61238;-83
2024/03/04 09:41:46;;;;;;;19.20;9.00;;;;;;;;;;107478;1256;61260;-82
2024/03/04 09:44:12;;;;;;;7.10;4.20;;;;;;;;;;107611;1253;61884;-83
2024/03/04 09:46:39;;;;;;;7.90;3.90;;;;;;;;;;107334;1254;61173;-83
2024/03/04 09:49:05;;;;;;;6.80;3.70;;;;;;;;;;107520;1251;61266;-83
2024/03/04 09:51:32;;;;;;;6.60;3.50;;;;;;;;;;107395;1253;61228;-82
2024/03/04 09:53:58;;;;;;;9.20;3.60;;;;;;;;;;107507;1253;60265;-82
2024/03/04 09:56:26;;;;;;;8.50;3.70;;;;;;;;;;107279;1253;61366;-83
2024/03/04 09:58:53;;;;;;;14.10;4.00;;;;;;;;;;108399;1253;62991;-84
2024/03/04 10:01:19;;;;;;;6.40;3.80;;;;;;;;;;107626;1253;61157;-84
2024/03/04 10:03:46;;;;;;;7.10;2.60;;;;;;;;;;107732;1254;61365;-82
2024/03/04 10:06:12;;;;;;;8.00;3.80;;;;;;;;;;107595;1254;61184;-83
2024/03/04 10:08:39;;;;;;;6.40;3.30;;;;;;;;;;108640;1252;61131;-82
2024/03/04 10:11:05;;;;;;;10.90;5.30;;;;;;;;;;109435;1253;58936;-82
2024/03/04 10:13:32;;;;;;;6.60;3.80;;;;;;;;;;109408;1253;58887;-83
2024/03/04 10:15:58;;;;;;;9.30;5.00;;;;;;;;;;109389;1253;59058;-82
2024/03/04 10:18:25;;;;;;;9.20;3.70;;;;;;;;;;109424;1252;59204;-83
2024/03/04 10:20:57;;;;;;;8.00;3.90;;;;;;;;;;109447;1253;59017;-83
2024/03/04 10:23:23;;;;;;;14.90;5.30;;;;;;;;;;109432;1253;60796;-83
2024/03/04 10:26:06;;;;;;;5.40;3.20;;;;;;;;;;109427;1253;58784;-82
2024/03/04 10:28:39;;;;;;;8.50;4.90;;;;;;;;;;109403;1253;59410;-84
2024/03/04 10:31:15;;;;;;;9.00;5.30;;;;;;;;;;109386;1253;59154;-82
2024/03/04 10:33:42;;;;;;;12.10;5.70;;;;;;;;;;109364;1251;60199;-84
2024/03/04 10:36:18;;;;;;;6.40;5.50;;;;;;;;;;109447;1253;59179;-82
2024/03/04 10:38:47;;;;;;;12.90;7.90;;;;;;;;;;109317;1253;59212;-82
2024/03/04 10:41:15;;;;;;;10.60;4.80;;;;;;;;;;109371;1253;60184;-84
2024/03/04 10:43:42;;;;;;;9.50;4.50;;;;;;;;;;109384;1251;59203;-83
2024/03/04 10:46:08;;;;;;;6.70;3.30;;;;;;;;;;109324;1251;59198;-82
2024/03/04 10:48:35;;;;;;;10.50;3.40;;;;;;;;;;109447;1253;59237;-82
2024/03/04 10:51:01;;;;;;;15.00;11.20;;;;;;;;;;109431;1253;59241;-84
2024/03/04 10:53:28;;;;;;;12.60;8.90;;;;;;;;;;109405;1252;59097;-83
2024/03/04 10:55:54;;;;;;;14.70;5.30;;;;;;;;;;109335;1253;59184;-84
2024/03/04 10:58:21;;;;;;;8.80;5.30;;;;;;;;;;108379;1253;61358;-81
2024/03/04 11:00:48;;;;;;;7.50;4.10;;;;;;;;;;107291;1253;61225;-83
2024/03/04 11:03:16;;;;;;;9.00;4.60;;;;;;;;;;107442;1253;61103;-83
2024/03/04 11:05:43;;;;;;;10.10;5.90;;;;;;;;;;107693;1253;61330;-83
2024/03/04 11:08:19;;;;;;;9.40;3.60;;;;;;;;;;107434;1256;61128;-83
2024/03/04 11:10:53;;;;;;;7.60;4.50;;;;;;;;;;107517;1255;59522;-83
2024/03/04 11:13:35;;;;;;;10.80;2.90;;;;;;;;;;107545;1253;61768;-83
2024/03/04 11:16:11;;;;;;;11.10;4.70;;;;;;;;;;107491;1254;61112;-82
2024/03/04 11:18:47;;;;;;;8.60;2.90;;;;;;;;;;107393;1256;61250;-82
2024/03/04 11:21:13;;;;;;;9.10;4.30;;;;;;;;;;107479;1253;61340;-83
2024/03/04 11:23:40;;;;;;;7.10;3.40;;;;;;;;;;107258;1252;61074;-81
2024/03/04 11:26:06;;;;;;;8.90;4.40;;;;;;;;;;107859;1252;61232;-83
2024/03/04 11:28:33;;;;;;;18.80;5.10;;;;;;;;;;109328;1253;59400;-83
2024/03/04 11:30:59;;;;;;;8.30;5.00;;;;;;;;;;109340;1251;59671;-82
2024/03/04 11:33:39;;;;;;;8.60;4.70;;;;;;;;;;109388;1252;59515;-82
2024/03/04 11:36:06;;;;;;;4.30;3.60;;;;;;;;;;109424;1253;59020;-81
2024/03/04 11:38:42;;;;;;;10.30;5.30;;;;;;;;;;109316;1253;61948;-83
2024/03/04 11:41:09;;;;;;;13.00;4.30;;;;;;;;;;109315;1252;59204;-81
2024/03/04 11:43:44;;;;;;;13.30;4.80;;;;;;;;;;109468;1251;60937;-83
2024/03/04 11:46:14;;;;;;;15.20;8.20;;;;;;;;;;109407;1252;59129;-83
2024/03/04 11:48:41;;;;;;;10.00;5.30;;;;;;;;;;109407;1253;58937;-83
2024/03/04 11:51:07;;;;;;;13.80;5.00;;;;;;;;;;109401;1253;62455;-83
2024/03/04 11:53:34;;;;;;;6.60;2.70;;;;;;;;;;109391;1251;59210;-83
2024/03/04 11:56:02;;;;;;;9.80;3.80;;;;;;;;;;109424;1252;59794;-82
2024/03/04 11:58:28;;;;;;;14.60;5.30;;;;;;;;;;109419;1251;59175;-81
2024/03/04 12:00:56;;;;;;;9.30;4.80;;;;;;;;;;109387;1253;59418;-82
2024/03/04 12:03:22;;;;;;;17.20;8.10;;;;;;;;;;109441;1251;61900;-82
2024/03/04 12:05:49;;;;;;;15.80;5.80;;;;;;;;;;109307;1253;58964;-82
2024/03/04 12:08:15;;;;;;;14.00;6.70;;;;;;;;;;109394;1253;59117;-81
2024/03/04 12:10:42;;;;;;;27.20;11.20;;;;;;;;;;109269;1252;59360;-82
2024/03/04 12:13:09;;;;;;;39.00;16.10;;;;;;;;;;109446;1251;59207;-83
2024/03/04 12:15:35;;;;;;;23.40;8.80;;;;;;;;;;109364;1252;61923;-82
2024/03/04 12:18:02;;;;;;;8.90;3.80;;;;;;;;;;109357;1251;59298;-83
2024/03/04 12:20:29;;;;;;;13.90;5.40;;;;;;;;;;109328;1251;59278;-83
2024/03/04 12:22:56;;;;;;;7.90;5.10;;;;;;;;;;109422;1253;59095;-82
2024/03/04 12:25:26;;;;;;;28.30;16.20;;;;;;;;;;109468;1251;59394;-83
2024/03/04 12:27:55;;;;;;;23.70;11.20;;;;;;;;;;109420;1253;61889;-82
2024/03/04 12:30:22;;;;;;;24.90;11.90;;;;;;;;;;109495;1252;58936;-83
2024/03/04 12:32:49;;;;;;;24.50;14.80;;;;;;;;;;109395;1252;58905;-83
2024/03/04 12:35:32;;;;;;;10.30;6.30;;;;;;;;;;109401;1251;59148;-83
2024/03/04 12:38:01;;;;;;;14.10;7.60;;;;;;;;;;109442;1253;59648;-81
2024/03/04 12:40:28;;;;;;;12.00;6.50;;;;;;;;;;109453;1253;62009;-82
2024/03/04 12:42:55;;;;;;;17.10;11.00;;;;;;;;;;109475;1251;59115;-82
2024/03/04 12:45:22;;;;;;;22.90;8.50;;;;;;;;;;108544;1253;61314;-82
2024/03/04 12:47:51;;;;;;;11.80;4.10;;;;;;;;;;107755;1253;59456;-82
2024/03/04 12:50:18;;;;;;;15.40;7.60;;;;;;;;;;109418;1253;59107;-82
2024/03/04 12:52:44;;;;;;;11.80;6.00;;;;;;;;;;109301;1253;60727;-82
2024/03/04 12:55:14;;;;;;;10.40;6.00;;;;;;;;;;109486;1253;58939;-82
2024/03/04 12:57:41;;;;;;;9.00;4.50;;;;;;;;;;109344;1251;59786;-82
2024/03/04 13:00:14;;;;;;;15.60;6.90;;;;;;;;;;109389;1252;59612;-81
2024/03/04 13:02:40;;;;;;;18.50;11.30;;;;;;;;;;109440;1253;58880;-83
2024/03/04 13:05:07;;;;;;;30.80;19.00;;;;;;;;;;109438;1252;59174;-81
2024/03/04 13:07:33;;;;;;;47.90;27.20;;;;;;;;;;109414;1253;59364;-83
2024/03/04 13:10:05;;;;;;;44.60;25.80;;;;;;;;;;109427;1253;60414;-82
2024/03/04 13:12:35;;;;;;;34.30;23.10;;;;;;;;;;109439;1251;59160;-82
2024/03/04 13:15:08;;;;;;;37.00;23.90;;;;;;;;;;109491;1251;58817;-82
2024/03/04 13:17:35;;;;;;;39.30;23.30;;;;;;;;;;109387;1253;63036;-82
2024/03/04 13:20:12;;;;;;;36.10;23.20;;;;;;;;;;109419;1253;59024;-82
2024/03/04 13:22:39;;;;;;;40.20;23.00;;;;;;;;;;109405;1252;59016;-82
2024/03/04 13:25:06;;;;;;;34.30;23.50;;;;;;;;;;109396;1251;58968;-81
2024/03/04 13:27:33;;;;;;;33.60;22.60;;;;;;;;;;109440;1252;59292;-82
2024/03/04 13:30:02;;;;;;;44.80;23.90;;;;;;;;;;109422;1252;61584;-81
2024/03/04 13:32:29;;;;;;;38.40;23.90;;;;;;;;;;109447;1253;59263;-81
2024/03/04 13:34:55;;;;;;;39.00;24.90;;;;;;;;;;107721;1253;61243;-81
2024/03/04 13:37:22;;;;;;;40.10;26.00;;;;;;;;;;107455;1253;61342;-81
2024/03/04 13:39:48;;;;;;;38.40;25.00;;;;;;;;;;107343;1253;61190;-81
2024/03/04 13:42:15;;;;;;;38.40;24.20;;;;;;;;;;107356;1253;59292;-81
2024/03/04 13:44:42;;;;;;;39.30;23.50;;;;;;;;;;107323;1253;62416;-82
2024/03/04 13:47:08;;;;;;;35.70;23.50;;;;;;;;;;107249;1252;60160;-81
2024/03/04 13:49:35;;;;;;;40.50;22.20;;;;;;;;;;107361;1252;59287;-82
2024/03/04 13:52:02;;;;;;;36.70;23.10;;;;;;;;;;107608;1253;61158;-82
2024/03/04 13:54:30;;;;;;;38.70;24.30;;;;;;;;;;107739;1253;61071;-83
2024/03/04 13:56:56;;;;;;;41.70;23.80;;;;;;;;;;108021;1254;61273;-80
2024/03/04 13:59:23;;;;;;;44.30;26.80;;;;;;;;;;107825;1256;61347;-83
2024/03/04 14:01:49;;;;;;;39.70;23.70;;;;;;;;;;107734;1256;60993;-81
2024/03/04 14:04:16;;;;;;;41.80;26.60;;;;;;;;;;107432;1252;61197;-84
2024/03/04 14:06:43;;;;;;;41.60;24.60;;;;;;;;;;107156;1253;61142;-82
2024/03/04 14:09:09;;;;;;;41.70;26.40;;;;;;;;;;107282;1254;61345;-82